Time;durP1;ratioP1;P1;durP2;ratioP2;P2;SDS_P1;SDS_P2;PMS_P1;PMS_P2;Temp;Humidity;BMP_temperature;BMP_pressure;BME280_temperature;BME280_humidity;BME280_pressure;Samples;Min_cycle;Max_cycle;Signal;HPM_P1;HPM_P2
2023/05/24 00:01:56;;;;;;;11.37;4.33;;;;;;;10.06;100.00;100603.31;5007135;28;20245;-68
2023/05/24 00:04:23;;;;;;;11.67;4.27;;;;;;;9.97;100.00;100607.13;5012313;28;20269;-67
2023/05/24 00:06:49;;;;;;;7.87;4.03;;;;;;;9.75;100.00;100610.63;5001734;28;20198;-67
2023/05/24 00:09:15;;;;;;;12.73;4.33;;;;;;;9.60;100.00;100611.28;4997082;28;20183;-68
2023/05/24 00:11:40;;;;;;;10.60;3.97;;;;;;;9.62;100.00;100602.59;5012107;28;20328;-67
2023/05/24 00:14:05;;;;;;;10.03;4.30;;;;;;;9.51;100.00;100602.22;5010431;28;20233;-67
2023/05/24 00:16:31;;;;;;;10.83;4.10;;;;;;;9.35;100.00;100597.75;4993615;28;20568;-66
2023/05/24 00:18:57;;;;;;;11.60;4.77;;;;;;;9.25;100.00;100606.69;5011961;28;20585;-66
2023/05/24 00:21:23;;;;;;;9.53;4.53;;;;;;;9.17;100.00;100603.63;4998920;28;20316;-67
2023/05/24 00:23:50;;;;;;;10.17;4.63;;;;;;;9.20;100.00;100606.91;5017125;28;20214;-67
2023/05/24 00:26:15;;;;;;;11.60;4.20;;;;;;;9.15;100.00;100603.69;5011153;28;20179;-67
2023/05/24 00:28:41;;;;;;;7.83;3.70;;;;;;;8.95;100.00;100598.53;5006391;28;20175;-67
2023/05/24 00:31:07;;;;;;;13.20;4.23;;;;;;;8.99;100.00;100597.50;5000920;28;20230;-67
2023/05/24 00:33:32;;;;;;;8.17;4.73;;;;;;;8.94;100.00;100599.41;5018524;28;20175;-66
2023/05/24 00:35:57;;;;;;;11.53;4.97;;;;;;;8.83;100.00;100592.13;5009914;28;20194;-67
2023/05/24 00:38:25;;;;;;;9.67;4.10;;;;;;;8.79;100.00;100598.28;5011336;28;20190;-67
2023/05/24 00:40:50;;;;;;;9.73;4.20;;;;;;;8.80;100.00;100599.97;5011976;28;20697;-66
2023/05/24 00:43:16;;;;;;;8.47;3.80;;;;;;;8.73;100.00;100596.78;5024327;28;20178;-66
2023/05/24 00:45:41;;;;;;;11.43;4.03;;;;;;;8.70;100.00;100600.31;5015298;28;20186;-67
2023/05/24 00:48:08;;;;;;;9.37;4.67;;;;;;;8.72;100.00;100605.41;5005629;28;20179;-67
2023/05/24 00:50:33;;;;;;;8.73;3.87;;;;;;;8.66;100.00;100606.47;5002644;28;20244;-67
2023/05/24 00:53:03;;;;;;;9.43;3.87;;;;;;;8.64;100.00;100610.78;5026539;28;20175;-66
2023/05/24 00:55:29;;;;;;;14.63;4.97;;;;;;;8.60;100.00;100603.31;5015049;28;20214;-66
2023/05/24 00:57:56;;;;;;;12.10;4.70;;;;;;;8.61;100.00;100610.06;5015137;28;20220;-65
2023/05/24 01:00:22;;;;;;;13.93;4.67;;;;;;;8.55;100.00;100604.28;5007957;28;20223;-66
2023/05/24 01:02:48;;;;;;;9.83;4.20;;;;;;;8.54;100.00;100607.75;5013854;28;20182;-67
2023/05/24 01:05:16;;;;;;;8.77;4.77;;;;;;;8.40;100.00;100607.41;5015079;28;20229;-67
2023/05/24 01:08:06;;;;;;;10.23;4.30;;;;;;;8.38;100.00;100612.59;5015296;28;20619;-67
2023/05/24 01:10:42;;;;;;;15.53;5.13;;;;;;;8.49;100.00;100619.09;5007179;28;20241;-67
2023/05/24 01:13:07;;;;;;;13.97;4.57;;;;;;;8.42;100.00;100620.16;5025523;28;20222;-67
2023/05/24 01:15:44;;;;;;;11.80;4.57;;;;;;;8.33;100.00;100613.66;5014465;28;20626;-67
2023/05/24 01:18:38;;;;;;;15.87;5.30;;;;;;;8.39;100.00;100618.56;5014985;28;20202;-67
2023/05/24 01:21:06;;;;;;;11.87;4.43;;;;;;;8.36;100.00;100616.94;4996958;28;20234;-66
2023/05/24 01:23:37;;;;;;;10.37;4.63;;;;;;;8.40;100.00;100620.22;5022135;28;20186;-66
2023/05/24 01:26:25;;;;;;;11.97;5.23;;;;;;;8.44;100.00;100608.97;5014289;28;20240;-66
2023/05/24 01:28:51;;;;;;;12.23;4.90;;;;;;;8.59;100.00;100604.19;5009644;28;20287;-66
2023/05/24 01:31:17;;;;;;;10.97;4.00;;;;;;;8.58;100.00;100598.22;5006738;28;20340;-66
2023/05/24 01:33:43;;;;;;;11.83;4.53;;;;;;;8.65;100.00;100601.41;5020210;28;20258;-66
2023/05/24 01:36:09;;;;;;;11.10;4.40;;;;;;;8.56;100.00;100603.41;5012794;28;20269;-66
2023/05/24 01:38:35;;;;;;;8.13;3.67;;;;;;;8.57;100.00;100604.25;5014679;28;20182;-66
2023/05/24 01:41:09;;;;;;;16.47;4.63;;;;;;;8.58;100.00;100603.34;5011909;28;20226;-66
2023/05/24 01:43:47;;;;;;;9.20;3.97;;;;;;;8.46;100.00;100599.53;5021212;28;20275;-66
2023/05/24 01:46:33;;;;;;;12.13;4.87;;;;;;;8.59;100.00;100591.38;5013829;28;20645;-66
2023/05/24 01:49:09;;;;;;;15.83;4.27;;;;;;;8.69;100.00;100597.81;5014841;28;20187;-65
2023/05/24 01:51:52;;;;;;;10.37;3.97;;;;;;;8.61;100.00;100600.66;5015079;28;20743;-66
2023/05/24 01:54:24;;;;;;;8.20;3.83;;;;;;;8.65;100.00;100596.25;5013437;28;20179;-65
2023/05/24 01:56:52;;;;;;;9.50;3.97;;;;;;;8.69;100.00;100602.94;5014379;28;20215;-66
2023/05/24 01:59:19;;;;;;;10.00;4.00;;;;;;;8.72;100.00;100602.84;5014278;28;20190;-66
2023/05/24 02:01:45;;;;;;;13.47;4.30;;;;;;;8.68;100.00;100603.81;5017288;28;20357;-67
2023/05/24 02:04:10;;;;;;;8.93;4.27;;;;;;;8.70;100.00;100596.91;5016100;28;20197;-67
2023/05/24 02:06:36;;;;;;;11.43;3.93;;;;;;;8.76;100.00;100595.81;5013914;28;20257;-67
2023/05/24 02:09:02;;;;;;;7.40;4.30;;;;;;;8.75;100.00;100599.31;5013993;28;20194;-66
2023/05/24 02:11:27;;;;;;;8.23;3.97;;;;;;;8.67;100.00;100595.31;5014673;28;20243;-67
2023/05/24 02:13:52;;;;;;;10.50;3.77;;;;;;;8.79;100.00;100593.97;5018270;28;20179;-66
2023/05/24 02:16:18;;;;;;;12.70;4.37;;;;;;;8.74;100.00;100600.19;5012074;28;20197;-67
2023/05/24 02:18:45;;;;;;;10.47;4.13;;;;;;;8.73;100.00;100596.78;5013818;28;20247;-66
2023/05/24 02:21:11;;;;;;;13.07;4.63;;;;;;;8.82;100.00;100600.72;5012694;28;20344;-67
2023/05/24 02:23:37;;;;;;;13.07;4.30;;;;;;;8.86;100.00;100603.09;5020114;28;20657;-67
2023/05/24 02:26:02;;;;;;;14.10;5.03;;;;;;;8.87;100.00;100598.81;5013059;28;20269;-66
2023/05/24 02:28:30;;;;;;;10.03;4.43;;;;;;;8.87;100.00;100604.78;5011133;28;20962;-66
2023/05/24 02:30:56;;;;;;;13.70;4.47;;;;;;;8.80;100.00;100611.03;5000267;28;20230;-67
2023/05/24 02:33:24;;;;;;;9.23;3.50;;;;;;;8.82;100.00;100606.69;5012481;28;20190;-67
2023/05/24 02:35:49;;;;;;;10.30;3.80;;;;;;;8.77;100.00;100607.75;5013307;28;20190;-67
2023/05/24 02:38:15;;;;;;;11.30;3.97;;;;;;;8.79;100.00;100611.09;5013273;28;20274;-66
2023/05/24 02:40:40;;;;;;;10.73;3.47;;;;;;;8.75;100.00;100604.44;5008329;28;20252;-67
2023/05/24 02:43:05;;;;;;;12.60;4.27;;;;;;;8.69;100.00;100608.88;5023792;28;20202;-67
2023/05/24 02:45:31;;;;;;;11.27;3.70;;;;;;;8.75;100.00;100612.97;5013018;28;20186;-67
2023/05/24 02:47:56;;;;;;;12.70;4.33;;;;;;;8.72;100.00;100606.22;5013251;28;20190;-67
2023/05/24 02:50:21;;;;;;;9.60;3.73;;;;;;;8.69;100.00;100601.19;5005838;28;20245;-67
2023/05/24 02:52:46;;;;;;;13.43;4.23;;;;;;;8.64;100.00;100597.97;5025954;28;20174;-67
2023/05/24 02:55:12;;;;;;;10.80;4.03;;;;;;;8.68;100.00;100602.09;5012768;28;20179;-67
2023/05/24 02:57:37;;;;;;;10.27;3.73;;;;;;;8.74;100.00;100607.91;5012974;28;20178;-67
2023/05/24 03:00:07;;;;;;;11.83;3.70;;;;;;;8.58;100.00;100598.22;5004167;28;20257;-67
2023/05/24 03:02:32;;;;;;;9.13;3.60;;;;;;;8.51;100.00;100610.44;5001924;28;20575;-67
2023/05/24 03:04:58;;;;;;;9.77;3.73;;;;;;;8.54;100.00;100599.22;5013019;28;20175;-67
2023/05/24 03:07:23;;;;;;;12.73;3.47;;;;;;;8.63;100.00;100605.72;5013237;28;20217;-66
2023/05/24 03:09:48;;;;;;;9.23;3.77;;;;;;;8.51;100.00;100605.31;5012679;28;20230;-67
2023/05/24 03:12:14;;;;;;;13.97;3.97;;;;;;;8.55;100.00;100606.03;5016387;28;20250;-67
2023/05/24 03:14:39;;;;;;;13.40;3.23;;;;;;;8.59;100.00;100607.56;5001325;28;20229;-66
2023/05/24 03:17:04;;;;;;;12.77;4.07;;;;;;;8.52;100.00;100607.00;5008971;28;20230;-67
2023/05/24 03:19:30;;;;;;;16.47;4.83;;;;;;;8.60;100.00;100609.25;5007703;28;20526;-67
2023/05/24 03:21:55;;;;;;;10.07;3.93;;;;;;;8.64;100.00;100605.66;5016703;28;20225;-67
2023/05/24 03:24:20;;;;;;;13.10;4.60;;;;;;;8.73;100.00;100601.91;5013735;28;20630;-66
2023/05/24 03:26:45;;;;;;;16.40;4.43;;;;;;;8.72;100.00;100606.22;5012486;28;20175;-66
2023/05/24 03:29:11;;;;;;;12.70;3.87;;;;;;;8.64;100.00;100604.84;5003318;28;20187;-66
2023/05/24 03:31:36;;;;;;;9.53;4.40;;;;;;;8.78;100.00;100602.59;4976553;28;20380;-67
2023/05/24 03:34:01;;;;;;;8.67;3.30;;;;;;;8.93;100.00;100606.28;5012179;28;20193;-67
2023/05/24 03:36:27;;;;;;;14.17;3.73;;;;;;;8.69;100.00;100618.31;5012313;28;20525;-66
2023/05/24 03:38:53;;;;;;;13.60;4.10;;;;;;;8.91;100.00;100612.38;5012406;28;20178;-66
2023/05/24 03:41:19;;;;;;;10.20;3.80;;;;;;;8.96;100.00;100611.28;5011939;28;20221;-66
2023/05/24 03:43:44;;;;;;;15.30;4.83;;;;;;;9.04;100.00;100614.38;5011119;28;20627;-66
2023/05/24 03:46:09;;;;;;;11.50;4.00;;;;;;;9.02;100.00;100615.34;5010492;28;20549;-67
2023/05/24 03:48:35;;;;;;;12.43;4.13;;;;;;;8.95;100.00;100608.78;5012390;28;20672;-67
2023/05/24 03:51:00;;;;;;;9.63;3.80;;;;;;;8.81;100.00;100617.03;5009635;28;20236;-67
2023/05/24 03:53:25;;;;;;;9.17;4.33;;;;;;;8.78;100.00;100617.13;5020103;28;20269;-67
2023/05/24 03:55:51;;;;;;;7.50;3.60;;;;;;;8.68;100.00;100617.50;5011397;28;20174;-67
2023/05/24 03:58:16;;;;;;;8.03;3.50;;;;;;;8.61;100.00;100622.91;5012492;28;20497;-67
2023/05/24 04:00:41;;;;;;;13.00;3.87;;;;;;;8.58;100.00;100630.72;5007178;28;20690;-66
2023/05/24 04:03:07;;;;;;;10.73;4.10;;;;;;;8.55;100.00;100626.53;5022333;28;20265;-67
2023/05/24 04:05:33;;;;;;;13.77;3.83;;;;;;;8.42;100.00;100626.13;5011736;28;20175;-67
2023/05/24 04:07:59;;;;;;;10.73;4.47;;;;;;;8.27;100.00;100629.25;5011746;28;20555;-67
2023/05/24 04:10:24;;;;;;;10.90;4.00;;;;;;;8.40;100.00;100621.06;5003307;28;20328;-67
2023/05/24 04:12:49;;;;;;;8.93;4.20;;;;;;;8.63;100.00;100627.06;5019225;28;20179;-68
2023/05/24 04:15:15;;;;;;;12.40;3.80;;;;;;;8.66;100.00;100631.28;5011406;28;20194;-66
2023/05/24 04:17:42;;;;;;;12.53;3.57;;;;;;;8.70;100.00;100620.81;5011811;28;20194;-67
2023/05/24 04:20:08;;;;;;;11.60;3.93;;;;;;;8.71;100.00;100625.06;5002119;28;20187;-66
2023/05/24 04:22:35;;;;;;;14.00;3.90;;;;;;;8.66;100.00;100626.97;5010612;28;20650;-67
2023/05/24 04:25:00;;;;;;;21.00;4.73;;;;;;;8.70;100.00;100625.94;5011212;28;20228;-66
2023/05/24 04:27:26;;;;;;;12.20;3.90;;;;;;;8.75;100.00;100617.25;5012381;28;20183;-66
2023/05/24 04:29:52;;;;;;;13.97;4.40;;;;;;;8.69;100.00;100616.56;4998618;28;20187;-67
2023/05/24 04:32:18;;;;;;;11.27;3.47;;;;;;;8.80;100.00;100620.47;5016892;28;20240;-66
2023/05/24 04:34:45;;;;;;;11.07;3.27;;;;;;;8.77;100.00;100618.88;4998277;28;20679;-67
2023/05/24 04:37:10;;;;;;;11.00;3.83;;;;;;;8.87;100.00;100625.31;5011125;28;20181;-67
2023/05/24 04:39:35;;;;;;;15.37;4.57;;;;;;;8.88;100.00;100632.13;5011732;28;20183;-67
2023/05/24 04:42:02;;;;;;;9.70;3.97;;;;;;;8.55;100.00;100640.19;5016147;28;20226;-67
2023/05/24 04:44:27;;;;;;;10.23;3.80;;;;;;;8.60;100.00;100642.59;5012146;28;20194;-66
2023/05/24 04:46:52;;;;;;;13.17;3.63;;;;;;;8.59;100.00;100643.47;5011149;28;20175;-67
2023/05/24 04:49:18;;;;;;;8.63;3.77;;;;;;;8.80;100.00;100646.13;5010458;28;20244;-66
2023/05/24 04:51:44;;;;;;;10.80;3.90;;;;;;;8.92;100.00;100648.22;5014201;28;20780;-66
2023/05/24 04:54:09;;;;;;;11.10;4.43;;;;;;;9.11;100.00;100652.63;5013695;28;20241;-66
2023/05/24 04:56:37;;;;;;;14.00;4.13;;;;;;;9.14;100.00;100642.22;5009913;28;20171;-67
2023/05/24 04:59:03;;;;;;;15.40;4.00;;;;;;;8.97;100.00;100654.00;5012056;28;20183;-68
2023/05/24 05:01:28;;;;;;;10.93;3.57;;;;;;;9.01;100.00;100647.84;5012351;28;20605;-67
2023/05/24 05:03:53;;;;;;;15.03;3.97;;;;;;;8.76;100.00;100649.69;5010068;28;20650;-67
2023/05/24 05:06:18;;;;;;;12.00;4.20;;;;;;;8.85;100.00;100657.88;5010987;28;20197;-67
2023/05/24 05:08:44;;;;;;;14.60;4.10;;;;;;;8.74;100.00;100657.44;5010096;28;20182;-67
2023/05/24 05:11:09;;;;;;;14.70;3.50;;;;;;;8.77;100.00;100656.50;5009349;28;20721;-67
2023/05/24 05:13:34;;;;;;;7.70;3.57;;;;;;;8.93;100.00;100659.31;5018346;28;20241;-67
2023/05/24 05:16:01;;;;;;;10.13;3.70;;;;;;;9.10;100.00;100656.09;5009408;28;20214;-67
2023/05/24 05:18:26;;;;;;;14.43;3.73;;;;;;;9.26;100.00;100653.75;5009988;28;20203;-66
2023/05/24 05:20:51;;;;;;;17.10;4.20;;;;;;;9.17;100.00;100647.25;5003816;28;20602;-66
2023/05/24 05:23:16;;;;;;;8.83;3.33;;;;;;;9.43;100.00;100648.78;5010921;28;20186;-66
2023/05/24 05:25:42;;;;;;;11.73;3.83;;;;;;;9.79;100.00;100644.75;5012191;28;20195;-66
2023/05/24 05:28:07;;;;;;;11.70;4.13;;;;;;;10.05;100.00;100642.75;5015055;28;20537;-67
2023/05/24 05:30:32;;;;;;;13.03;3.97;;;;;;;10.00;100.00;100646.38;4993707;28;20238;-68
2023/05/24 05:32:58;;;;;;;9.07;3.60;;;;;;;10.20;100.00;100638.72;5013763;28;20233;-66
2023/05/24 05:35:23;;;;;;;13.63;3.93;;;;;;;9.87;100.00;100645.22;5014176;28;20191;-67
2023/05/24 05:37:48;;;;;;;12.30;3.70;;;;;;;10.05;100.00;100659.03;5014427;28;20277;-68
2023/05/24 05:40:13;;;;;;;11.77;3.83;;;;;;;9.66;100.00;100662.38;5004184;28;20190;-67
2023/05/24 05:42:38;;;;;;;14.10;4.53;;;;;;;9.81;100.00;100674.59;5028749;28;20499;-67
2023/05/24 05:45:04;;;;;;;15.97;4.10;;;;;;;9.93;100.00;100670.66;5014298;28;20179;-67
2023/05/24 05:47:30;;;;;;;11.53;3.33;;;;;;;9.80;100.00;100677.25;5014646;28;20598;-67
2023/05/24 05:49:55;;;;;;;13.67;4.00;;;;;;;9.67;100.00;100672.63;5014322;28;20273;-67
2023/05/24 05:52:20;;;;;;;17.27;3.83;;;;;;;9.89;100.00;100689.69;5019400;28;20241;-67
2023/05/24 05:54:45;;;;;;;16.33;3.50;;;;;;;9.95;100.00;100678.31;5014581;28;20262;-67
2023/05/24 05:57:11;;;;;;;12.70;4.23;;;;;;;10.14;100.00;100680.94;5012850;28;20544;-67
2023/05/24 05:59:37;;;;;;;9.70;3.20;;;;;;;10.29;100.00;100680.25;5014281;28;20175;-68
2023/05/24 06:02:04;;;;;;;13.67;3.20;;;;;;;9.92;100.00;100679.25;5017155;28;20283;-67
2023/05/24 06:04:30;;;;;;;15.20;3.17;;;;;;;9.75;100.00;100686.84;5014181;28;20320;-67
2023/05/24 06:06:55;;;;;;;11.83;3.13;;;;;;;9.85;100.00;100680.44;5012839;28;20175;-68
2023/05/24 06:09:21;;;;;;;10.33;2.90;;;;;;;10.07;100.00;100689.81;5014038;28;20227;-68
2023/05/24 06:11:46;;;;;;;12.63;3.23;;;;;;;10.18;100.00;100687.59;5005830;28;20222;-68
2023/05/24 06:14:17;;;;;;;13.37;3.33;;;;;;;10.12;100.00;100688.72;5014821;28;20650;-67
2023/05/24 06:16:44;;;;;;;12.43;3.43;;;;;;;10.14;100.00;100679.19;5012273;28;20202;-68
2023/05/24 06:19:10;;;;;;;13.17;3.27;;;;;;;10.10;100.00;100693.06;5012801;28;20265;-67
2023/05/24 06:21:36;;;;;;;8.93;2.97;;;;;;;10.52;100.00;100693.03;5014990;28;20317;-67
2023/05/24 06:24:01;;;;;;;8.43;3.33;;;;;;;10.92;99.23;100689.47;5016061;28;20233;-67
2023/05/24 06:26:27;;;;;;;18.13;2.93;;;;;;;11.32;96.20;100691.06;5013192;28;20551;-69
2023/05/24 06:28:52;;;;;;;11.83;2.93;;;;;;;11.95;90.97;100699.09;5008283;28;20635;-70
2023/05/24 06:31:17;;;;;;;17.90;3.60;;;;;;;12.11;89.49;100698.34;5005905;28;20225;-70
2023/05/24 06:33:43;;;;;;;12.20;3.40;;;;;;;12.96;83.14;100700.75;5018867;28;20175;-70
2023/05/24 06:36:08;;;;;;;6.40;2.57;;;;;;;13.48;72.39;100703.06;5012425;28;20643;-71
2023/05/24 06:38:34;;;;;;;10.87;3.00;;;;;;;14.28;65.49;100712.22;5000996;28;20178;-68
2023/05/24 06:41:00;;;;;;;10.33;3.63;;;;;;;14.00;64.17;100708.69;4997552;28;20309;-68
2023/05/24 06:43:25;;;;;;;7.03;2.73;;;;;;;15.29;59.23;100706.84;5021701;28;20274;-69
2023/05/24 06:45:50;;;;;;;11.53;2.90;;;;;;;16.58;53.59;100699.09;5012356;28;20206;-69
2023/05/24 06:48:16;;;;;;;12.50;3.40;;;;;;;16.64;50.07;100716.84;5013389;28;20646;-70
2023/05/24 06:50:41;;;;;;;10.00;2.83;;;;;;;16.63;56.86;100712.59;5003287;28;20283;-60
2023/05/24 06:53:06;;;;;;;8.57;3.33;;;;;;;16.56;52.41;100708.75;5022937;28;20317;-60
2023/05/24 06:55:32;;;;;;;10.97;3.20;;;;;;;16.60;52.77;100707.63;5012850;28;20218;-59
2023/05/24 06:57:57;;;;;;;10.03;3.03;;;;;;;17.62;48.43;100705.50;5011686;28;20272;-59
2023/05/24 07:00:22;;;;;;;10.87;2.70;;;;;;;18.18;44.96;100707.41;4992904;28;20220;-60
2023/05/24 07:02:48;;;;;;;11.37;3.23;;;;;;;17.32;48.04;100708.63;4998001;28;20607;-58
2023/05/24 07:05:13;;;;;;;8.90;3.10;;;;;;;17.84;47.44;100704.72;5012098;28;20212;-61
2023/05/24 07:07:42;;;;;;;9.70;2.93;;;;;;;18.66;43.46;100698.47;5011269;28;20637;-59
2023/05/24 07:10:10;;;;;;;6.13;2.83;;;;;;;17.89;44.30;100699.19;4997893;28;20226;-61
2023/05/24 07:12:36;;;;;;;8.00;2.80;;;;;;;17.91;44.96;100692.91;5026961;28;20716;-59
2023/05/24 07:15:03;;;;;;;10.00;2.90;;;;;;;17.31;46.06;100701.75;5008764;28;20189;-60
2023/05/24 07:17:28;;;;;;;7.87;2.70;;;;;;;16.38;47.76;100690.94;5027320;28;20215;-59
2023/05/24 07:19:54;;;;;;;8.43;3.00;;;;;;;18.43;44.94;100692.47;5008273;28;20179;-60
2023/05/24 07:22:19;;;;;;;10.53;3.77;;;;;;;19.55;39.85;100702.66;5012297;28;20222;-59
2023/05/24 07:24:44;;;;;;;7.93;2.83;;;;;;;19.02;40.01;100701.72;5008110;28;20268;-60
2023/05/24 07:27:09;;;;;;;7.90;3.07;;;;;;;18.39;41.32;100710.13;5012264;28;20182;-59
2023/05/24 07:29:35;;;;;;;12.10;3.40;;;;;;;17.98;43.06;100700.28;5007495;28;21471;-59
2023/05/24 07:32:01;;;;;;;6.60;2.67;;;;;;;19.57;40.01;100695.50;4980103;28;20280;-58
2023/05/24 07:34:28;;;;;;;6.83;2.37;;;;;;;18.89;39.46;100708.84;5012117;28;20186;-59
2023/05/24 07:36:59;;;;;;;9.53;3.07;;;;;;;19.72;38.75;100692.59;5011938;28;20267;-59
2023/05/24 07:39:26;;;;;;;12.23;3.63;;;;;;;20.15;38.21;100699.44;5012459;28;20260;-59
2023/05/24 07:41:52;;;;;;;8.30;2.90;;;;;;;20.68;36.58;100692.28;5015626;28;20228;-63
2023/05/24 07:44:18;;;;;;;8.80;3.43;;;;;;;20.61;38.04;100705.88;5009272;28;20191;-60
2023/05/24 07:46:43;;;;;;;7.23;2.90;;;;;;;21.06;35.92;100706.38;5008742;28;20190;-59
2023/05/24 07:49:08;;;;;;;8.00;3.20;;;;;;;20.94;35.93;100710.94;5010807;28;20609;-59
2023/05/24 07:51:33;;;;;;;11.03;3.60;;;;;;;20.36;36.51;100719.44;5009808;28;20545;-67
2023/05/24 07:53:59;;;;;;;6.07;2.70;;;;;;;19.18;39.49;100716.94;5010575;28;20175;-67
2023/05/24 07:56:25;;;;;;;9.17;3.17;;;;;;;21.68;36.26;100724.41;5011695;28;20618;-68
2023/05/24 07:58:50;;;;;;;8.33;2.90;;;;;;;21.07;35.18;100729.81;5011871;28;20179;-68
2023/05/24 08:01:17;;;;;;;10.23;2.87;;;;;;;19.92;37.47;100735.31;5003971;28;20264;-68
2023/05/24 08:03:43;;;;;;;7.60;3.03;;;;;;;21.82;35.31;100726.59;5006216;28;20639;-68
2023/05/24 08:06:08;;;;;;;7.57;2.83;;;;;;;20.28;35.20;100735.75;5011297;28;20261;-67
2023/05/24 08:08:35;;;;;;;6.90;2.37;;;;;;;20.47;35.79;100732.41;5011853;28;20197;-67
2023/05/24 08:11:00;;;;;;;7.33;3.03;;;;;;;18.90;37.72;100739.16;5008701;28;20244;-67
2023/05/24 08:13:26;;;;;;;6.73;2.67;;;;;;;19.51;37.47;100732.56;5010253;28;20175;-67
2023/05/24 08:15:51;;;;;;;5.33;2.50;;;;;;;20.46;35.51;100739.41;5011271;28;20186;-67
2023/05/24 08:18:16;;;;;;;7.43;3.00;;;;;;;19.60;36.57;100739.63;5009820;28;20677;-68
2023/05/24 08:20:41;;;;;;;6.03;2.77;;;;;;;18.74;38.06;100730.91;5006881;28;20384;-68
2023/05/24 08:23:07;;;;;;;11.33;3.03;;;;;;;16.96;41.70;100723.34;5021424;28;20181;-69
2023/05/24 08:25:32;;;;;;;12.40;2.90;;;;;;;16.52;43.48;100722.91;5011381;28;20190;-69
2023/05/24 08:27:57;;;;;;;5.93;2.47;;;;;;;16.78;43.40;100715.88;4997843;28;20522;-68
2023/05/24 08:30:23;;;;;;;8.23;2.93;;;;;;;18.26;40.76;100713.78;5001360;28;20259;-66
2023/05/24 08:32:49;;;;;;;9.97;2.93;;;;;;;19.78;38.90;100707.75;5023778;28;20184;-68
2023/05/24 08:35:15;;;;;;;9.00;2.57;;;;;;;21.63;35.31;100710.91;5026429;28;20186;-68
2023/05/24 08:37:40;;;;;;;6.97;2.60;;;;;;;19.22;38.38;100709.69;5011934;28;20186;-69
2023/05/24 08:40:08;;;;;;;7.50;3.03;;;;;;;17.16;43.48;100704.53;5001441;28;20210;-68
2023/05/24 08:42:37;;;;;;;6.90;2.60;;;;;;;16.11;45.89;100714.44;5010046;28;20522;-68
2023/05/24 08:45:08;;;;;;;10.10;3.88;;;;;;;15.00;48.87;100715.56;5009950;28;20414;-69
2023/05/24 08:47:35;;;;;;;13.33;3.30;;;;;;;14.34;56.61;100717.03;5011441;28;20178;-69
2023/05/24 08:50:01;;;;;;;8.77;2.90;;;;;;;14.33;57.42;100720.53;5011316;28;20178;-67
2023/05/24 08:52:28;;;;;;;8.17;3.00;;;;;;;14.38;60.38;100722.84;5017692;28;20305;-68
2023/05/24 08:54:54;;;;;;;11.17;3.27;;;;;;;13.61;61.91;100728.22;5011381;28;20313;-68
2023/05/24 08:57:21;;;;;;;8.57;2.70;;;;;;;12.85;72.33;100727.16;5009739;28;20273;-68
2023/05/24 08:59:46;;;;;;;7.87;2.60;;;;;;;13.11;74.59;100730.06;5027319;28;20242;-67
2023/05/24 09:02:13;;;;;;;14.10;3.50;;;;;;;12.91;71.44;100725.09;5020334;28;20718;-67
2023/05/24 09:04:40;;;;;;;11.17;3.10;;;;;;;12.97;73.96;100717.94;5015090;28;20183;-68
2023/05/24 09:07:07;;;;;;;8.97;3.00;;;;;;;13.05;74.00;100718.34;5013481;28;20183;-68
2023/05/24 09:09:33;;;;;;;10.43;3.27;;;;;;;12.95;73.65;100712.84;5014882;28;20222;-67
2023/05/24 09:12:03;;;;;;;7.40;2.63;;;;;;;13.19;77.51;100717.59;5006515;28;20699;-67
2023/05/24 09:14:28;;;;;;;10.80;3.13;;;;;;;13.45;70.52;100715.31;5003923;28;20183;-68
2023/05/24 09:16:54;;;;;;;11.13;3.03;;;;;;;13.47;68.99;100728.97;5014411;28;20209;-67
2023/05/24 09:19:19;;;;;;;10.53;3.03;;;;;;;13.35;70.63;100728.72;5014924;28;20186;-68
2023/05/24 09:21:45;;;;;;;7.50;2.80;;;;;;;14.78;59.43;100717.84;5010553;28;20272;-68
2023/05/24 09:24:10;;;;;;;9.80;3.17;;;;;;;16.53;51.69;100716.78;5015194;28;20187;-67
2023/05/24 09:26:36;;;;;;;7.57;2.97;;;;;;;17.64;45.84;100721.84;5014335;28;20178;-68
2023/05/24 09:29:05;;;;;;;9.87;3.13;;;;;;;18.77;45.36;100721.06;5007702;28;20237;-69
2023/05/24 09:31:32;;;;;;;8.70;3.20;;;;;;;19.04;43.51;100712.03;5000066;28;20692;-68
2023/05/24 09:33:58;;;;;;;13.07;3.50;;;;;;;19.61;42.27;100709.97;5018090;28;20185;-68
2023/05/24 09:36:23;;;;;;;7.93;2.60;;;;;;;20.90;38.95;100727.84;5014051;28;20198;-69
2023/05/24 09:39:05;;;;;;;9.63;3.10;;;;;;;21.53;36.97;100724.00;5014594;28;20543;-67
2023/05/24 09:41:31;;;;;;;8.40;3.30;;;;;;;23.42;34.54;100722.78;5013640;28;20218;-67
2023/05/24 09:43:57;;;;;;;8.40;2.87;;;;;;;21.72;34.36;100736.25;5000092;28;20190;-68
2023/05/24 09:46:22;;;;;;;13.60;3.90;;;;;;;20.84;36.31;100731.00;5009110;28;20643;-68
2023/05/24 09:49:02;;;;;;;9.43;3.23;;;;;;;23.44;34.74;100720.00;5004335;28;20180;-69
2023/05/24 09:51:27;;;;;;;7.37;3.03;;;;;;;21.21;33.89;100725.94;5015252;28;20229;-68
2023/05/24 09:53:56;;;;;;;7.00;2.60;;;;;;;22.50;31.71;100727.28;4998159;28;20195;-67
2023/05/24 09:56:22;;;;;;;7.30;3.00;;;;;;;22.41;33.39;100723.75;5007905;28;20186;-69
2023/05/24 09:58:47;;;;;;;7.80;3.03;;;;;;;22.02;33.75;100721.28;5014486;28;20210;-71
2023/05/24 10:01:15;;;;;;;6.43;3.00;;;;;;;22.62;33.47;100713.00;5013509;28;20254;-71
2023/05/24 10:03:58;;;;;;;7.60;2.90;;;;;;;23.01;31.98;100714.56;5012866;28;20170;-71
2023/05/24 10:06:24;;;;;;;6.57;2.90;;;;;;;25.05;30.23;100703.59;5008969;28;20215;-71
2023/05/24 10:08:50;;;;;;;10.10;3.85;;;;;;;25.20;30.07;100701.94;5012430;28;20266;-70
2023/05/24 10:11:17;;;;;;;9.90;3.35;;;;;;;24.38;30.00;100707.06;5011283;28;20234;-72
2023/05/24 10:13:43;;;;;;;9.10;3.65;;;;;;;23.98;30.96;100706.75;5002111;28;20183;-70
2023/05/24 10:16:08;;;;;;;7.90;3.28;;;;;;;25.48;30.04;100696.38;5012989;28;20555;-71
2023/05/24 10:18:33;;;;;;;10.77;3.35;;;;;;;24.69;29.48;100703.91;5013548;28;20195;-70
2023/05/24 10:21:01;;;;;;;6.70;3.17;;;;;;;24.63;30.74;100703.53;5004862;28;21567;-71
2023/05/24 10:23:31;;;;;;;8.60;3.15;;;;;;;23.59;31.82;100702.75;5001979;28;20194;-64
2023/05/24 10:26:08;;;;;;;8.23;3.70;;;;;;;24.42;29.81;100709.25;5011768;28;20663;-71
2023/05/24 10:28:38;;;;;;;7.97;2.95;;;;;;;23.31;30.46;100704.66;5010699;28;20545;-69
2023/05/24 10:31:21;;;;;;;7.97;3.55;;;;;;;22.54;31.37;100710.31;4992910;28;20646;-70
2023/05/24 10:33:47;;;;;;;5.63;2.55;;;;;;;21.95;33.30;100709.72;5004353;28;20195;-72
2023/05/24 10:36:14;;;;;;;7.47;2.67;;;;;;;21.03;35.73;100697.03;5006448;28;20198;-69
2023/05/24 10:38:40;;;;;;;12.17;3.20;;;;;;;20.91;34.93;100705.97;5010173;28;20184;-70
2023/05/24 10:41:09;;;;;;;8.97;3.17;;;;;;;19.33;37.75;100698.38;5003045;28;20333;-68
2023/05/24 10:43:35;;;;;;;8.93;3.00;;;;;;;19.46;37.92;100696.44;5007274;28;20187;-68
2023/05/24 10:46:02;;;;;;;8.30;3.00;;;;;;;18.31;38.67;100689.03;5012751;28;20225;-69
2023/05/24 10:48:27;;;;;;;10.10;3.03;;;;;;;17.64;41.62;100698.44;5011483;28;20520;-67
2023/05/24 10:50:53;;;;;;;10.30;3.47;;;;;;;16.74;44.12;100685.88;5004784;28;20236;-67
2023/05/24 10:53:21;;;;;;;8.03;3.27;;;;;;;17.75;44.67;100685.44;5022470;28;20265;-67
2023/05/24 10:56:07;;;;;;;7.63;3.50;;;;;;;17.97;42.13;100683.81;5012627;28;20179;-68
2023/05/24 10:58:32;;;;;;;7.73;3.17;;;;;;;16.41;45.49;100671.72;5013451;28;20186;-68
2023/05/24 11:00:57;;;;;;;8.80;3.00;;;;;;;16.35;47.44;100666.97;4992434;28;20595;-68
2023/05/24 11:03:23;;;;;;;11.10;3.40;;;;;;;16.15;46.03;100671.78;5012855;28;20251;-68
2023/05/24 11:05:48;;;;;;;10.27;3.37;;;;;;;16.32;45.84;100667.19;5012474;28;20248;-68
2023/05/24 11:08:30;;;;;;;10.83;3.47;;;;;;;16.98;44.97;100664.28;5012759;28;20266;-67
2023/05/24 11:11:10;;;;;;;9.80;3.40;;;;;;;17.42;45.50;100660.19;4999756;28;20242;-68
2023/05/24 11:13:37;;;;;;;8.33;3.47;;;;;;;16.94;44.24;100659.31;5003215;28;20182;-67
2023/05/24 11:16:03;;;;;;;7.13;3.20;;;;;;;15.79;46.71;100673.34;5009737;28;20783;-67
2023/05/24 11:18:28;;;;;;;10.20;3.47;;;;;;;15.83;47.75;100667.03;5010023;28;20289;-67